sensor_id;sensor_type;location;lat;lon;timestamp;P1;durP1;ratioP1;P2;durP2;ratioP2
17504;SDS011;8870;50.950;11.762;2023-01-15T00:02:01;0.28;;;0.20;;
17504;SDS011;8870;50.950;11.762;2023-01-15T00:07:33;0.10;;;0.10;;
17504;SDS011;8870;50.950;11.762;2023-01-15T00:12:51;0.10;;;0.10;;
17504;SDS011;8870;50.950;11.762;2023-01-15T00:18:24;0.43;;;0.10;;
17504;SDS011;8870;50.950;11.762;2023-01-15T00:23:43;0.30;;;0.20;;
17504;SDS011;8870;50.950;11.762;2023-01-15T00:29:27;0.25;;;0.20;;
17504;SDS011;8870;50.950;11.762;2023-01-15T00:34:48;0.20;;;0.10;;
17504;SDS011;8870;50.950;11.762;2023-01-15T00:40:20;0.10;;;0.10;;
17504;SDS011;8870;50.950;11.762;2023-01-15T00:45:38;0.20;;;0.00;;
17504;SDS011;8870;50.950;11.762;2023-01-15T00:51:12;0.40;;;0.28;;
17504;SDS011;8870;50.950;11.762;2023-01-15T00:56:31;0.17;;;0.15;;
17504;SDS011;8870;50.950;11.762;2023-01-15T01:02:03;0.47;;;0.10;;
17504;SDS011;8870;50.950;11.762;2023-01-15T01:07:24;0.10;;;0.10;;
17504;SDS011;8870;50.950;11.762;2023-01-15T01:12:56;0.10;;;0.10;;
17504;SDS011;8870;50.950;11.762;2023-01-15T01:18:14;0.10;;;0.10;;
17504;SDS011;8870;50.950;11.762;2023-01-15T01:23:47;0.10;;;0.10;;
17504;SDS011;8870;50.950;11.762;2023-01-15T01:29:06;0.08;;;0.05;;
17504;SDS011;8870;50.950;11.762;2023-01-15T01:34:38;0.20;;;0.10;;
17504;SDS011;8870;50.950;11.762;2023-01-15T01:39:59;0.05;;;0.05;;
17504;SDS011;8870;50.950;11.762;2023-01-15T01:45:32;0.08;;;0.08;;
17504;SDS011;8870;50.950;11.762;2023-01-15T01:50:50;0.30;;;0.20;;
17504;SDS011;8870;50.950;11.762;2023-01-15T01:56:26;1.65;;;0.10;;
17504;SDS011;8870;50.950;11.762;2023-01-15T02:01:53;0.10;;;0.10;;
17504;SDS011;8870;50.950;11.762;2023-01-15T02:07:25;0.45;;;0.10;;
17504;SDS011;8870;50.950;11.762;2023-01-15T02:12:51;0.10;;;0.08;;
17504;SDS011;8870;50.950;11.762;2023-01-15T02:18:33;0.00;;;0.00;;
17504;SDS011;8870;50.950;11.762;2023-01-15T02:24:08;0.00;;;0.00;;
17504;SDS011;8870;50.950;11.762;2023-01-15T02:29:48;0.10;;;0.10;;
17504;SDS011;8870;50.950;11.762;2023-01-15T02:35:27;0.38;;;0.08;;
17504;SDS011;8870;50.950;11.762;2023-01-15T02:41:05;0.10;;;0.10;;
17504;SDS011;8870;50.950;11.762;2023-01-15T02:46:34;0.10;;;0.00;;
17504;SDS011;8870;50.950;11.762;2023-01-15T02:52:11;0.40;;;0.10;;
17504;SDS011;8870;50.950;11.762;2023-01-15T02:57:33;0.38;;;0.10;;
17504;SDS011;8870;50.950;11.762;2023-01-15T03:03:12;0.20;;;0.00;;
17504;SDS011;8870;50.950;11.762;2023-01-15T03:08:34;0.10;;;0.00;;
17504;SDS011;8870;50.950;11.762;2023-01-15T03:14:06;0.52;;;0.20;;
17504;SDS011;8870;50.950;11.762;2023-01-15T03:19:36;0.10;;;0.10;;
17504;SDS011;8870;50.950;11.762;2023-01-15T03:25:06;1.00;;;0.10;;
17504;SDS011;8870;50.950;11.762;2023-01-15T03:30:37;0.65;;;0.00;;
17504;SDS011;8870;50.950;11.762;2023-01-15T03:35:58;0.10;;;0.08;;
17504;SDS011;8870;50.950;11.762;2023-01-15T03:41:41;0.08;;;0.08;;
17504;SDS011;8870;50.950;11.762;2023-01-15T03:47:09;0.00;;;0.00;;
17504;SDS011;8870;50.950;11.762;2023-01-15T03:52:54;0.10;;;0.10;;
17504;SDS011;8870;50.950;11.762;2023-01-15T03:58:27;0.90;;;0.10;;
17504;SDS011;8870;50.950;11.762;2023-01-15T04:04:06;0.70;;;0.20;;
17504;SDS011;8870;50.950;11.762;2023-01-15T04:09:38;0.75;;;0.15;;
17504;SDS011;8870;50.950;11.762;2023-01-15T04:15:10;0.10;;;0.10;;
17504;SDS011;8870;50.950;11.762;2023-01-15T04:20:29;0.00;;;0.00;;
17504;SDS011;8870;50.950;11.762;2023-01-15T04:26:03;0.20;;;0.10;;
17504;SDS011;8870;50.950;11.762;2023-01-15T04:31:21;0.00;;;0.00;;
17504;SDS011;8870;50.950;11.762;2023-01-15T04:36:54;0.30;;;0.08;;
17504;SDS011;8870;50.950;11.762;2023-01-15T04:42:16;0.60;;;0.10;;
17504;SDS011;8870;50.950;11.762;2023-01-15T04:48:00;0.40;;;0.10;;
17504;SDS011;8870;50.950;11.762;2023-01-15T04:53:18;0.50;;;0.30;;
17504;SDS011;8870;50.950;11.762;2023-01-15T04:58:51;0.10;;;0.10;;
17504;SDS011;8870;50.950;11.762;2023-01-15T05:04:10;0.20;;;0.10;;
17504;SDS011;8870;50.950;11.762;2023-01-15T05:09:42;0.10;;;0.10;;
17504;SDS011;8870;50.950;11.762;2023-01-15T05:15:17;0.05;;;0.05;;
17504;SDS011;8870;50.950;11.762;2023-01-15T05:20:36;0.17;;;0.17;;
17504;SDS011;8870;50.950;11.762;2023-01-15T05:26:08;0.20;;;0.20;;
17504;SDS011;8870;50.950;11.762;2023-01-15T05:31:29;0.10;;;0.10;;
17504;SDS011;8870;50.950;11.762;2023-01-15T05:37:02;0.90;;;0.20;;
17504;SDS011;8870;50.950;11.762;2023-01-15T05:42:20;0.28;;;0.20;;
17504;SDS011;8870;50.950;11.762;2023-01-15T05:47:54;0.10;;;0.10;;
17504;SDS011;8870;50.950;11.762;2023-01-15T05:53:13;0.10;;;0.10;;
17504;SDS011;8870;50.950;11.762;2023-01-15T05:58:44;0.35;;;0.20;;
17504;SDS011;8870;50.950;11.762;2023-01-15T06:04:05;0.20;;;0.20;;
17504;SDS011;8870;50.950;11.762;2023-01-15T06:09:38;0.25;;;0.17;;
17504;SDS011;8870;50.950;11.762;2023-01-15T06:14:56;0.20;;;0.20;;
17504;SDS011;8870;50.950;11.762;2023-01-15T06:20:31;0.68;;;0.25;;
17504;SDS011;8870;50.950;11.762;2023-01-15T06:25:52;0.20;;;0.20;;
17504;SDS011;8870;50.950;11.762;2023-01-15T06:31:23;0.20;;;0.20;;
17504;SDS011;8870;50.950;11.762;2023-01-15T06:36:46;0.20;;;0.20;;
17504;SDS011;8870;50.950;11.762;2023-01-15T06:42:17;0.20;;;0.20;;
17504;SDS011;8870;50.950;11.762;2023-01-15T06:47:48;0.20;;;0.20;;
17504;SDS011;8870;50.950;11.762;2023-01-15T06:53:22;0.75;;;0.30;;
17504;SDS011;8870;50.950;11.762;2023-01-15T06:58:41;0.30;;;0.30;;
17504;SDS011;8870;50.950;11.762;2023-01-15T07:04:13;0.47;;;0.30;;
17504;SDS011;8870;50.950;11.762;2023-01-15T07:09:34;0.50;;;0.50;;
17504;SDS011;8870;50.950;11.762;2023-01-15T07:15:05;0.50;;;0.40;;
17504;SDS011;8870;50.950;11.762;2023-01-15T07:20:25;0.40;;;0.40;;
17504;SDS011;8870;50.950;11.762;2023-01-15T07:25:58;0.50;;;0.50;;
17504;SDS011;8870;50.950;11.762;2023-01-15T07:31:17;0.40;;;0.40;;
17504;SDS011;8870;50.950;11.762;2023-01-15T07:36:48;0.35;;;0.35;;
17504;SDS011;8870;50.950;11.762;2023-01-15T07:42:11;0.20;;;0.20;;
17504;SDS011;8870;50.950;11.762;2023-01-15T07:47:55;0.65;;;0.20;;
17504;SDS011;8870;50.950;11.762;2023-01-15T07:53:25;0.20;;;0.20;;
17504;SDS011;8870;50.950;11.762;2023-01-15T07:58:58;1.40;;;0.28;;
17504;SDS011;8870;50.950;11.762;2023-01-15T08:04:17;1.00;;;0.50;;
17504;SDS011;8870;50.950;11.762;2023-01-15T08:09:48;0.30;;;0.30;;
17504;SDS011;8870;50.950;11.762;2023-01-15T08:15:22;0.60;;;0.60;;
17504;SDS011;8870;50.950;11.762;2023-01-15T08:20:40;0.10;;;0.10;;
17504;SDS011;8870;50.950;11.762;2023-01-15T08:26:12;0.10;;;0.10;;
17504;SDS011;8870;50.950;11.762;2023-01-15T08:31:33;0.25;;;0.20;;
17504;SDS011;8870;50.950;11.762;2023-01-15T08:37:04;0.35;;;0.20;;
17504;SDS011;8870;50.950;11.762;2023-01-15T08:42:22;0.20;;;0.17;;
17504;SDS011;8870;50.950;11.762;2023-01-15T08:47:57;0.20;;;0.20;;
17504;SDS011;8870;50.950;11.762;2023-01-15T08:53:15;0.20;;;0.20;;
17504;SDS011;8870;50.950;11.762;2023-01-15T08:58:50;0.20;;;0.20;;
17504;SDS011;8870;50.950;11.762;2023-01-15T09:04:11;0.17;;;0.17;;
17504;SDS011;8870;50.950;11.762;2023-01-15T09:09:44;0.17;;;0.15;;
17504;SDS011;8870;50.950;11.762;2023-01-15T09:15:15;0.20;;;0.20;;
17504;SDS011;8870;50.950;11.762;2023-01-15T09:20:38;0.20;;;0.20;;
17504;SDS011;8870;50.950;11.762;2023-01-15T09:26:22;0.63;;;0.20;;
17504;SDS011;8870;50.950;11.762;2023-01-15T09:31:43;0.20;;;0.20;;
17504;SDS011;8870;50.950;11.762;2023-01-15T09:37:17;0.70;;;0.32;;
17504;SDS011;8870;50.950;11.762;2023-01-15T09:42:39;0.38;;;0.22;;
17504;SDS011;8870;50.950;11.762;2023-01-15T09:48:22;0.40;;;0.30;;
17504;SDS011;8870;50.950;11.762;2023-01-15T09:54:10;0.50;;;0.30;;
17504;SDS011;8870;50.950;11.762;2023-01-15T09:59:49;0.30;;;0.30;;
17504;SDS011;8870;50.950;11.762;2023-01-15T10:05:16;0.45;;;0.25;;
17504;SDS011;8870;50.950;11.762;2023-01-15T10:10:54;0.28;;;0.25;;
17504;SDS011;8870;50.950;11.762;2023-01-15T10:16:30;0.40;;;0.30;;
17504;SDS011;8870;50.950;11.762;2023-01-15T10:21:51;0.63;;;0.30;;
17504;SDS011;8870;50.950;11.762;2023-01-15T10:27:30;0.70;;;0.50;;
17504;SDS011;8870;50.950;11.762;2023-01-15T10:32:51;0.70;;;0.70;;
17504;SDS011;8870;50.950;11.762;2023-01-15T10:38:27;0.45;;;0.28;;
17504;SDS011;8870;50.950;11.762;2023-01-15T10:43:54;0.60;;;0.30;;
17504;SDS011;8870;50.950;11.762;2023-01-15T10:49:30;0.55;;;0.20;;
17504;SDS011;8870;50.950;11.762;2023-01-15T10:54:50;0.40;;;0.25;;
17504;SDS011;8870;50.950;11.762;2023-01-15T11:00:31;0.40;;;0.30;;
17504;SDS011;8870;50.950;11.762;2023-01-15T11:05:49;0.57;;;0.30;;
17504;SDS011;8870;50.950;11.762;2023-01-15T11:11:22;0.40;;;0.20;;
17504;SDS011;8870;50.950;11.762;2023-01-15T11:17:13;0.30;;;0.30;;
17504;SDS011;8870;50.950;11.762;2023-01-15T11:23:05;0.68;;;0.20;;
17504;SDS011;8870;50.950;11.762;2023-01-15T11:28:32;0.20;;;0.20;;
17504;SDS011;8870;50.950;11.762;2023-01-15T11:34:17;0.20;;;0.20;;
17504;SDS011;8870;50.950;11.762;2023-01-15T11:39:37;0.30;;;0.30;;
17504;SDS011;8870;50.950;11.762;2023-01-15T11:45:11;0.30;;;0.30;;
17504;SDS011;8870;50.950;11.762;2023-01-15T11:50:52;0.10;;;0.10;;
17504;SDS011;8870;50.950;11.762;2023-01-15T11:56:24;0.20;;;0.20;;
17504;SDS011;8870;50.950;11.762;2023-01-15T12:01:47;0.30;;;0.30;;
17504;SDS011;8870;50.950;11.762;2023-01-15T12:07:27;0.30;;;0.30;;
17504;SDS011;8870;50.950;11.762;2023-01-15T12:12:57;0.55;;;0.38;;
17504;SDS011;8870;50.950;11.762;2023-01-15T12:18:43;0.30;;;0.30;;
17504;SDS011;8870;50.950;11.762;2023-01-15T12:24:15;0.20;;;0.13;;
17504;SDS011;8870;50.950;11.762;2023-01-15T12:29:59;0.30;;;0.30;;
17504;SDS011;8870;50.950;11.762;2023-01-15T12:35:24;0.20;;;0.20;;
17504;SDS011;8870;50.950;11.762;2023-01-15T12:41:03;0.43;;;0.40;;
17504;SDS011;8870;50.950;11.762;2023-01-15T12:46:27;0.50;;;0.50;;
17504;SDS011;8870;50.950;11.762;2023-01-15T12:52:04;0.30;;;0.30;;
17504;SDS011;8870;50.950;11.762;2023-01-15T12:57:32;0.20;;;0.20;;
17504;SDS011;8870;50.950;11.762;2023-01-15T13:03:12;0.10;;;0.10;;
17504;SDS011;8870;50.950;11.762;2023-01-15T13:08:38;0.28;;;0.28;;
17504;SDS011;8870;50.950;11.762;2023-01-15T13:14:18;0.23;;;0.23;;
17504;SDS011;8870;50.950;11.762;2023-01-15T13:19:41;0.30;;;0.30;;
17504;SDS011;8870;50.950;11.762;2023-01-15T13:25:25;0.30;;;0.30;;
17504;SDS011;8870;50.950;11.762;2023-01-15T13:30:55;0.20;;;0.20;;
17504;SDS011;8870;50.950;11.762;2023-01-15T13:36:32;0.20;;;0.20;;
17504;SDS011;8870;50.950;11.762;2023-01-15T13:41:57;0.40;;;0.30;;
17504;SDS011;8870;50.950;11.762;2023-01-15T13:48:04;0.30;;;0.30;;
17504;SDS011;8870;50.950;11.762;2023-01-15T13:53:26;0.60;;;0.50;;
17504;SDS011;8870;50.950;11.762;2023-01-15T13:59:00;1.13;;;0.40;;
17504;SDS011;8870;50.950;11.762;2023-01-15T14:04:31;0.30;;;0.20;;
17504;SDS011;8870;50.950;11.762;2023-01-15T14:10:09;0.52;;;0.30;;
17504;SDS011;8870;50.950;11.762;2023-01-15T14:15:44;0.73;;;0.30;;
17504;SDS011;8870;50.950;11.762;2023-01-15T14:21:27;1.88;;;0.40;;
17504;SDS011;8870;50.950;11.762;2023-01-15T14:26:53;0.45;;;0.30;;
17504;SDS011;8870;50.950;11.762;2023-01-15T14:32:34;0.47;;;0.30;;
17504;SDS011;8870;50.950;11.762;2023-01-15T14:38:06;0.30;;;0.30;;
17504;SDS011;8870;50.950;11.762;2023-01-15T14:43:47;0.40;;;0.30;;
17504;SDS011;8870;50.950;11.762;2023-01-15T14:55:02;0.52;;;0.47;;
17504;SDS011;8870;50.950;11.762;2023-01-15T15:00:20;0.85;;;0.30;;
17504;SDS011;8870;50.950;11.762;2023-01-15T15:05:53;0.70;;;0.38;;
17504;SDS011;8870;50.950;11.762;2023-01-15T15:11:22;0.95;;;0.40;;
17504;SDS011;8870;50.950;11.762;2023-01-15T15:17:18;0.57;;;0.50;;
17504;SDS011;8870;50.950;11.762;2023-01-15T15:22:43;1.88;;;0.52;;
17504;SDS011;8870;50.950;11.762;2023-01-15T15:28:21;1.20;;;0.47;;
17504;SDS011;8870;50.950;11.762;2023-01-15T15:33:39;1.13;;;0.50;;
17504;SDS011;8870;50.950;11.762;2023-01-15T15:39:14;1.08;;;0.47;;
17504;SDS011;8870;50.950;11.762;2023-01-15T15:44:40;1.55;;;0.60;;
17504;SDS011;8870;50.950;11.762;2023-01-15T15:50:32;0.77;;;0.50;;
17504;SDS011;8870;50.950;11.762;2023-01-15T15:55:51;1.77;;;0.55;;
17504;SDS011;8870;50.950;11.762;2023-01-15T16:01:29;1.15;;;0.57;;
17504;SDS011;8870;50.950;11.762;2023-01-15T16:06:47;1.55;;;0.70;;
17504;SDS011;8870;50.950;11.762;2023-01-15T16:12:19;1.23;;;0.43;;
17504;SDS011;8870;50.950;11.762;2023-01-15T16:17:41;3.00;;;0.60;;
17504;SDS011;8870;50.950;11.762;2023-01-15T16:23:17;0.90;;;0.63;;
17504;SDS011;8870;50.950;11.762;2023-01-15T16:28:40;1.02;;;0.75;;
17504;SDS011;8870;50.950;11.762;2023-01-15T16:34:19;0.73;;;0.60;;
17504;SDS011;8870;50.950;11.762;2023-01-15T16:39:42;1.02;;;0.80;;
17504;SDS011;8870;50.950;11.762;2023-01-15T16:45:23;1.73;;;1.10;;
17504;SDS011;8870;50.950;11.762;2023-01-15T16:57:30;0.95;;;0.73;;
17504;SDS011;8870;50.950;11.762;2023-01-15T17:02:49;1.05;;;0.60;;
17504;SDS011;8870;50.950;11.762;2023-01-15T17:08:22;2.38;;;0.90;;
17504;SDS011;8870;50.950;11.762;2023-01-15T17:13:48;1.97;;;0.60;;
17504;SDS011;8870;50.950;11.762;2023-01-15T17:19:20;0.93;;;0.60;;
17504;SDS011;8870;50.950;11.762;2023-01-15T17:24:46;1.10;;;0.70;;
17504;SDS011;8870;50.950;11.762;2023-01-15T17:30:20;1.90;;;0.70;;
17504;SDS011;8870;50.950;11.762;2023-01-15T17:35:44;1.23;;;0.70;;
17504;SDS011;8870;50.950;11.762;2023-01-15T17:41:22;1.83;;;0.73;;
17504;SDS011;8870;50.950;11.762;2023-01-15T17:46:50;1.60;;;0.70;;
17504;SDS011;8870;50.950;11.762;2023-01-15T17:52:26;2.15;;;0.85;;
17504;SDS011;8870;50.950;11.762;2023-01-15T17:58:13;0.98;;;0.77;;
17504;SDS011;8870;50.950;11.762;2023-01-15T18:04:13;1.63;;;0.80;;
17504;SDS011;8870;50.950;11.762;2023-01-15T18:09:47;1.52;;;0.80;;
17504;SDS011;8870;50.950;11.762;2023-01-15T18:15:20;2.15;;;0.95;;
17504;SDS011;8870;50.950;11.762;2023-01-15T18:20:41;1.70;;;0.77;;
17504;SDS011;8870;50.950;11.762;2023-01-15T18:26:12;1.85;;;0.80;;
17504;SDS011;8870;50.950;11.762;2023-01-15T18:31:32;1.50;;;0.80;;
17504;SDS011;8870;50.950;11.762;2023-01-15T18:37:06;1.58;;;0.80;;
17504;SDS011;8870;50.950;11.762;2023-01-15T18:42:24;2.40;;;0.77;;
17504;SDS011;8870;50.950;11.762;2023-01-15T18:48:08;1.50;;;0.70;;
17504;SDS011;8870;50.950;11.762;2023-01-15T18:53:33;0.88;;;0.68;;
17504;SDS011;8870;50.950;11.762;2023-01-15T18:59:05;2.40;;;0.80;;
17504;SDS011;8870;50.950;11.762;2023-01-15T19:04:24;1.70;;;0.75;;
17504;SDS011;8870;50.950;11.762;2023-01-15T19:09:59;1.48;;;0.88;;
17504;SDS011;8870;50.950;11.762;2023-01-15T19:15:18;1.58;;;0.70;;
17504;SDS011;8870;50.950;11.762;2023-01-15T19:21:05;1.92;;;0.80;;
17504;SDS011;8870;50.950;11.762;2023-01-15T19:26:34;1.60;;;0.90;;
17504;SDS011;8870;50.950;11.762;2023-01-15T19:32:11;1.75;;;0.75;;
17504;SDS011;8870;50.950;11.762;2023-01-15T19:37:30;1.38;;;0.70;;
17504;SDS011;8870;50.950;11.762;2023-01-15T19:43:05;1.98;;;0.80;;
17504;SDS011;8870;50.950;11.762;2023-01-15T19:48:36;0.57;;;0.50;;
17504;SDS011;8870;50.950;11.762;2023-01-15T19:54:20;1.70;;;0.65;;
17504;SDS011;8870;50.950;11.762;2023-01-15T20:00:01;2.58;;;0.80;;
17504;SDS011;8870;50.950;11.762;2023-01-15T20:05:32;1.33;;;0.70;;
17504;SDS011;8870;50.950;11.762;2023-01-15T20:10:50;0.82;;;0.60;;
17504;SDS011;8870;50.950;11.762;2023-01-15T20:16:24;2.00;;;0.80;;
17504;SDS011;8870;50.950;11.762;2023-01-15T20:21:42;1.85;;;0.80;;
17504;SDS011;8870;50.950;11.762;2023-01-15T20:27:13;1.17;;;0.70;;
17504;SDS011;8870;50.950;11.762;2023-01-15T20:32:34;1.13;;;0.80;;
17504;SDS011;8870;50.950;11.762;2023-01-15T20:38:07;1.30;;;0.70;;
17504;SDS011;8870;50.950;11.762;2023-01-15T20:43:26;2.08;;;0.70;;
17504;SDS011;8870;50.950;11.762;2023-01-15T20:49:14;0.85;;;0.50;;
17504;SDS011;8870;50.950;11.762;2023-01-15T20:54:42;0.90;;;0.60;;
17504;SDS011;8870;50.950;11.762;2023-01-15T21:00:14;1.13;;;0.75;;
17504;SDS011;8870;50.950;11.762;2023-01-15T21:05:37;0.65;;;0.50;;
17504;SDS011;8870;50.950;11.762;2023-01-15T21:39:08;0.95;;;0.40;;
17504;SDS011;8870;50.950;11.762;2023-01-15T21:44:41;1.90;;;0.60;;
17504;SDS011;8870;50.950;11.762;2023-01-15T21:50:00;2.47;;;0.50;;
17504;SDS011;8870;50.950;11.762;2023-01-15T21:55:33;2.20;;;0.70;;
17504;SDS011;8870;50.950;11.762;2023-01-15T22:00:51;1.20;;;0.80;;
17504;SDS011;8870;50.950;11.762;2023-01-15T22:06:22;1.83;;;0.50;;
17504;SDS011;8870;50.950;11.762;2023-01-15T22:11:43;1.35;;;0.73;;
17504;SDS011;8870;50.950;11.762;2023-01-15T22:17:14;0.70;;;0.60;;
17504;SDS011;8870;50.950;11.762;2023-01-15T22:22:32;1.15;;;0.50;;
17504;SDS011;8870;50.950;11.762;2023-01-15T22:28:07;1.02;;;0.60;;
17504;SDS011;8870;50.950;11.762;2023-01-15T22:33:26;1.50;;;0.68;;
17504;SDS011;8870;50.950;11.762;2023-01-15T22:38:56;1.75;;;0.70;;
17504;SDS011;8870;50.950;11.762;2023-01-15T22:44:17;1.00;;;0.70;;
17504;SDS011;8870;50.950;11.762;2023-01-15T22:49:48;1.45;;;0.80;;
17504;SDS011;8870;50.950;11.762;2023-01-15T22:55:07;0.95;;;0.50;;
17504;SDS011;8870;50.950;11.762;2023-01-15T23:00:42;1.75;;;0.73;;
17504;SDS011;8870;50.950;11.762;2023-01-15T23:06:01;1.73;;;0.80;;
17504;SDS011;8870;50.950;11.762;2023-01-15T23:11:34;1.42;;;0.80;;
17504;SDS011;8870;50.950;11.762;2023-01-15T23:16:55;1.98;;;0.88;;
17504;SDS011;8870;50.950;11.762;2023-01-15T23:22:26;2.30;;;0.80;;
17504;SDS011;8870;50.950;11.762;2023-01-15T23:27:45;2.08;;;0.95;;
17504;SDS011;8870;50.950;11.762;2023-01-15T23:33:20;2.17;;;0.90;;
17504;SDS011;8870;50.950;11.762;2023-01-15T23:38:46;1.17;;;0.75;;
17504;SDS011;8870;50.950;11.762;2023-01-15T23:44:18;2.93;;;0.80;;
17504;SDS011;8870;50.950;11.762;2023-01-15T23:49:52;2.83;;;0.90;;
17504;SDS011;8870;50.950;11.762;2023-01-15T23:55:25;2.90;;;1.00;;
